Time;durP1;ratioP1;P1;durP2;ratioP2;P2;SDS_P1;SDS_P2;PMS_P1;PMS_P2;Temp;Humidity;BMP_temperature;BMP_pressure;BME280_temperature;BME280_humidity;BME280_pressure;Samples;Min_cycle;Max_cycle;Signal;HPM_P1;HPM_P2
2022/07/23 00:01:33;;;;;;;9.50;4.47;;;18.30;98.10;;;;;;5030854;28;20026;-71
2022/07/23 00:03:59;;;;;;;10.23;4.35;;;18.30;98.10;;;;;;5013741;28;20464;-69
2022/07/23 00:06:25;;;;;;;7.60;4.05;;;18.30;98.10;;;;;;5015079;28;20443;-69
2022/07/23 00:08:51;;;;;;;8.70;4.20;;;18.30;98.40;;;;;;5014627;28;20117;-69
2022/07/23 00:11:17;;;;;;;9.23;4.80;;;18.30;98.10;;;;;;5014773;28;20587;-69
2022/07/23 00:13:42;;;;;;;13.65;4.53;;;18.30;98.00;;;;;;5030476;28;20378;-70
2022/07/23 00:16:11;;;;;;;6.72;4.05;;;18.30;98.20;;;;;;5014512;28;20490;-69
2022/07/23 00:18:37;;;;;;;9.45;4.38;;;18.30;98.20;;;;;;5014473;28;20416;-69
2022/07/23 00:21:12;;;;;;;15.85;5.15;;;18.30;98.10;;;;;;5014518;28;20038;-69
2022/07/23 00:23:37;;;;;;;16.42;6.63;;;18.20;98.20;;;;;;5029865;28;20114;-70
2022/07/23 00:26:03;;;;;;;10.57;5.82;;;18.10;98.40;;;;;;5014618;28;20183;-70
2022/07/23 00:28:37;;;;;;;9.93;4.82;;;18.10;98.30;;;;;;5014968;28;20121;-70
2022/07/23 00:31:02;;;;;;;10.13;4.55;;;18.10;98.40;;;;;;5014475;28;20121;-69
2022/07/23 00:33:28;;;;;;;13.13;4.60;;;18.10;98.50;;;;;;5014065;28;20034;-69
2022/07/23 00:35:54;;;;;;;8.77;4.93;;;18.10;98.60;;;;;;5014466;28;20519;-69
2022/07/23 00:38:19;;;;;;;9.15;4.63;;;18.10;98.60;;;;;;5014220;28;20096;-69
2022/07/23 00:40:45;;;;;;;9.35;4.45;;;18.10;98.50;;;;;;5014491;28;20306;-70
2022/07/23 00:43:11;;;;;;;8.38;4.18;;;18.10;98.50;;;;;;5009885;28;20064;-69
2022/07/23 00:45:37;;;;;;;6.45;4.57;;;18.10;98.50;;;;;;5008309;28;20046;-69
2022/07/23 00:48:02;;;;;;;6.78;4.25;;;18.20;98.60;;;;;;5014022;28;20038;-70
2022/07/23 00:50:28;;;;;;;11.30;4.45;;;18.20;98.50;;;;;;5013793;28;20042;-69
2022/07/23 00:52:54;;;;;;;11.02;4.70;;;18.10;98.60;;;;;;5013902;28;20080;-69
2022/07/23 00:55:20;;;;;;;7.18;4.38;;;18.10;98.50;;;;;;5013231;28;20045;-69
2022/07/23 00:57:47;;;;;;;9.95;4.85;;;18.20;98.70;;;;;;5029424;28;20517;-70
2022/07/23 01:00:14;;;;;;;8.70;4.85;;;18.10;98.70;;;;;;5009654;28;20054;-68
2022/07/23 01:02:41;;;;;;;8.88;5.20;;;18.10;98.60;;;;;;5000583;28;20037;-69
2022/07/23 01:05:08;;;;;;;12.73;5.47;;;18.00;98.60;;;;;;5013736;28;20022;-69
2022/07/23 01:07:34;;;;;;;12.10;4.78;;;18.00;98.80;;;;;;5014243;28;20018;-70
2022/07/23 01:10:00;;;;;;;8.13;5.10;;;18.00;98.80;;;;;;5013607;28;20042;-69
2022/07/23 01:12:26;;;;;;;9.48;5.13;;;18.00;98.90;;;;;;5013811;28;20038;-69
2022/07/23 01:14:59;;;;;;;6.28;4.43;;;18.00;99.00;;;;;;5013751;28;20037;-70
2022/07/23 01:17:24;;;;;;;8.65;4.75;;;17.90;99.00;;;;;;5013523;28;20040;-70
2022/07/23 01:19:50;;;;;;;8.95;5.07;;;17.90;98.90;;;;;;5013892;28;20026;-69
2022/07/23 01:22:19;;;;;;;7.03;4.93;;;17.90;99.20;;;;;;5013498;28;20029;-69
2022/07/23 01:24:45;;;;;;;9.32;5.32;;;17.90;99.00;;;;;;5013396;28;20111;-70
2022/07/23 01:27:12;;;;;;;9.80;5.55;;;17.80;99.10;;;;;;5013468;28;20391;-69
2022/07/23 01:29:38;;;;;;;10.00;5.15;;;17.80;99.10;;;;;;5013330;28;20038;-70
2022/07/23 01:32:05;;;;;;;11.25;5.00;;;17.70;99.10;;;;;;5013262;28;20109;-70
2022/07/23 01:34:30;;;;;;;9.15;5.75;;;17.70;99.30;;;;;;5013782;28;20499;-70
2022/07/23 01:36:56;;;;;;;7.95;4.88;;;17.60;99.30;;;;;;5030101;28;20164;-70
2022/07/23 01:39:21;;;;;;;8.70;5.20;;;17.60;99.40;;;;;;5032899;28;20029;-69
2022/07/23 01:41:48;;;;;;;13.32;5.75;;;17.50;99.50;;;;;;5033041;28;20134;-70
2022/07/23 01:44:13;;;;;;;13.93;5.70;;;17.50;99.10;;;;;;5031783;28;20028;-69
2022/07/23 01:46:39;;;;;;;10.50;5.47;;;17.50;99.30;;;;;;5033192;28;20026;-69
2022/07/23 01:49:05;;;;;;;8.23;5.22;;;17.50;99.30;;;;;;5032780;28;20040;-70
2022/07/23 01:51:31;;;;;;;14.32;5.38;;;17.40;99.50;;;;;;5031625;28;20035;-70
2022/07/23 01:53:56;;;;;;;9.65;5.60;;;17.40;99.60;;;;;;5031541;28;20514;-69
2022/07/23 01:56:22;;;;;;;10.38;5.55;;;17.40;99.50;;;;;;5032284;28;20124;-69
2022/07/23 01:58:49;;;;;;;8.60;5.43;;;17.40;99.50;;;;;;5032981;28;20044;-70
2022/07/23 02:01:15;;;;;;;9.82;5.50;;;17.40;99.40;;;;;;5032568;28;20471;-69
2022/07/23 02:03:40;;;;;;;8.45;5.30;;;17.40;99.40;;;;;;5031999;28;20119;-69
2022/07/23 02:06:15;;;;;;;11.07;5.40;;;17.40;99.50;;;;;;5032148;28;20048;-71
2022/07/23 02:08:41;;;;;;;9.10;5.47;;;17.40;99.50;;;;;;5031162;28;20112;-71
2022/07/23 02:11:13;;;;;;;10.75;4.80;;;17.40;99.60;;;;;;5031366;28;20184;-70
2022/07/23 02:13:39;;;;;;;11.35;6.35;;;17.40;99.50;;;;;;5031729;28;20128;-70
2022/07/23 02:16:14;;;;;;;8.05;5.68;;;17.40;99.50;;;;;;5031337;28;20128;-71
2022/07/23 02:18:39;;;;;;;12.02;6.20;;;17.40;99.60;;;;;;5031313;28;20120;-70
2022/07/23 02:21:11;;;;;;;10.50;5.90;;;17.50;99.60;;;;;;5031332;28;20113;-71
2022/07/23 02:23:36;;;;;;;7.80;4.85;;;17.50;99.50;;;;;;5030796;28;20025;-71
2022/07/23 02:26:02;;;;;;;13.50;5.97;;;17.50;99.40;;;;;;5032032;28;20029;-71
2022/07/23 02:28:28;;;;;;;13.00;5.22;;;17.50;99.40;;;;;;5031365;28;20022;-70
2022/07/23 02:30:54;;;;;;;8.77;5.30;;;17.60;99.60;;;;;;5014552;28;20026;-72
2022/07/23 02:33:20;;;;;;;10.63;5.82;;;17.60;99.50;;;;;;5030675;28;20052;-69
2022/07/23 02:35:45;;;;;;;8.98;5.43;;;17.60;99.30;;;;;;5030878;28;20436;-72
2022/07/23 02:38:11;;;;;;;10.65;5.53;;;17.70;99.50;;;;;;5031674;28;20035;-69
2022/07/23 02:40:37;;;;;;;18.15;6.43;;;17.60;99.40;;;;;;5031227;28;20463;-71
2022/07/23 02:43:03;;;;;;;10.07;4.95;;;17.70;99.30;;;;;;5030865;28;20037;-72
2022/07/23 02:45:29;;;;;;;10.40;6.57;;;17.70;99.10;;;;;;5030549;28;20037;-71
2022/07/23 02:47:55;;;;;;;10.45;6.10;;;17.60;99.30;;;;;;5014085;28;20037;-71
2022/07/23 02:50:21;;;;;;;14.10;6.13;;;17.60;99.40;;;;;;5030544;28;20025;-72
2022/07/23 02:52:47;;;;;;;13.55;6.20;;;17.60;99.40;;;;;;5031041;28;20367;-71
2022/07/23 02:55:13;;;;;;;10.00;6.78;;;17.60;99.40;;;;;;5030465;28;20093;-69
2022/07/23 02:57:38;;;;;;;14.73;6.78;;;17.60;99.40;;;;;;5031426;28;20112;-70
2022/07/23 03:00:06;;;;;;;14.60;6.57;;;17.60;99.60;;;;;;5031522;28;20424;-70
2022/07/23 03:02:31;;;;;;;11.87;6.17;;;17.70;99.60;;;;;;5031564;28;20068;-69
2022/07/23 03:04:57;;;;;;;11.48;5.93;;;17.60;99.90;;;;;;5030395;28;20064;-71
2022/07/23 03:07:23;;;;;;;13.63;6.38;;;17.70;99.50;;;;;;5031788;28;20017;-69
2022/07/23 03:09:49;;;;;;;14.85;6.53;;;17.70;99.40;;;;;;5031333;28;20037;-70
2022/07/23 03:12:14;;;;;;;13.57;6.05;;;17.70;99.60;;;;;;5031409;28;20094;-68
2022/07/23 03:14:41;;;;;;;16.17;6.20;;;17.70;99.50;;;;;;5030190;28;20025;-70
2022/07/23 03:17:07;;;;;;;12.20;6.03;;;17.80;99.40;;;;;;5031247;28;20269;-70
2022/07/23 03:19:33;;;;;;;11.68;6.00;;;17.80;99.70;;;;;;5031600;28;20048;-69
2022/07/23 03:21:59;;;;;;;12.15;5.82;;;17.70;99.50;;;;;;5031088;28;20037;-70
2022/07/23 03:24:53;;;;;;;8.68;5.57;;;17.80;99.70;;;;;;5030997;28;20033;-71
2022/07/23 03:27:10;;;;;;;12.50;6.53;;;17.80;99.60;;;;;;5030956;28;20026;-70
2022/07/23 03:29:36;;;;;;;8.90;6.32;;;17.60;99.90;;;;;;5031180;28;20048;-70
2022/07/23 03:32:03;;;;;;;12.10;6.07;;;17.70;99.90;;;;;;5029998;28;20044;-70
2022/07/23 03:34:29;;;;;;;13.10;6.18;;;17.70;99.90;;;;;;5031416;28;20022;-70
2022/07/23 03:36:55;;;;;;;10.93;5.75;;;17.80;99.90;;;;;;5030880;28;20474;-69
2022/07/23 03:39:20;;;;;;;15.20;6.22;;;17.80;99.90;;;;;;5029699;28;20471;-71
2022/07/23 03:41:46;;;;;;;10.30;6.07;;;17.80;99.90;;;;;;5030905;28;20084;-71
2022/07/23 03:44:11;;;;;;;8.43;5.03;;;17.90;99.90;;;;;;5030671;28;20029;-70
2022/07/23 03:46:37;;;;;;;11.18;5.43;;;17.90;99.90;;;;;;5031308;28;20033;-70
2022/07/23 03:49:03;;;;;;;6.50;4.85;;;17.90;99.90;;;;;;5030812;28;20452;-70
2022/07/23 03:51:28;;;;;;;10.70;5.50;;;17.80;99.90;;;;;;5030902;28;20029;-70
2022/07/23 03:53:55;;;;;;;13.13;6.05;;;17.70;99.90;;;;;;5030936;28;20049;-70
2022/07/23 03:56:21;;;;;;;11.35;6.00;;;17.70;99.90;;;;;;5029312;28;20037;-70
2022/07/23 03:58:46;;;;;;;9.63;5.70;;;17.70;99.90;;;;;;5031269;28;20025;-70
2022/07/23 04:01:12;;;;;;;12.43;6.00;;;17.70;99.90;;;;;;5031118;28;20099;-71
2022/07/23 04:03:38;;;;;;;19.90;6.50;;;17.70;99.90;;;;;;5030715;28;20514;-71
2022/07/23 04:06:10;;;;;;;10.48;5.47;;;17.70;99.90;;;;;;5030639;28;20052;-69
2022/07/23 04:08:36;;;;;;;8.57;5.93;;;17.80;99.90;;;;;;5030448;28;20539;-69
2022/07/23 04:11:01;;;;;;;17.77;6.95;;;17.70;99.90;;;;;;5030543;28;20207;-69
2022/07/23 04:13:27;;;;;;;13.23;6.90;;;17.70;99.90;;;;;;5031029;28;20036;-71
2022/07/23 04:15:52;;;;;;;15.57;7.13;;;17.70;99.90;;;;;;5030531;28;20048;-70
2022/07/23 04:18:18;;;;;;;11.65;6.57;;;17.60;99.90;;;;;;5030610;28;20025;-70
2022/07/23 04:20:44;;;;;;;8.90;6.28;;;17.70;99.90;;;;;;5029570;28;20034;-70
2022/07/23 04:23:10;;;;;;;16.02;6.68;;;17.70;99.90;;;;;;5030377;28;20048;-70
2022/07/23 04:25:36;;;;;;;13.45;7.30;;;17.70;99.90;;;;;;5031389;28;20025;-70
2022/07/23 04:28:02;;;;;;;17.98;6.65;;;17.80;99.90;;;;;;5034002;28;20026;-70
2022/07/23 04:30:27;;;;;;;13.45;7.05;;;17.70;99.90;;;;;;5034420;28;20033;-69
2022/07/23 04:32:53;;;;;;;15.18;6.95;;;17.60;99.90;;;;;;5034033;28;20113;-70
2022/07/23 04:35:19;;;;;;;8.05;6.40;;;17.70;99.90;;;;;;5033894;28;20470;-69
2022/07/23 04:37:45;;;;;;;14.38;7.53;;;17.70;99.90;;;;;;5034861;28;20502;-70
2022/07/23 04:40:12;;;;;;;13.38;7.55;;;17.50;99.90;;;;;;5033813;28;20117;-70
2022/07/23 04:42:38;;;;;;;14.85;7.68;;;17.60;99.90;;;;;;5032777;28;20463;-70
2022/07/23 04:45:04;;;;;;;15.80;8.27;;;17.60;99.90;;;;;;5033777;28;20033;-70
2022/07/23 04:47:30;;;;;;;12.90;7.38;;;17.60;99.90;;;;;;5033500;28;20033;-69
2022/07/23 04:49:57;;;;;;;13.45;7.38;;;17.60;99.90;;;;;;5033613;28;20363;-70
2022/07/23 04:52:23;;;;;;;13.02;7.35;;;17.70;99.90;;;;;;5034128;28;20080;-70
2022/07/23 04:54:49;;;;;;;12.95;8.02;;;17.60;99.90;;;;;;5033697;28;20053;-69
2022/07/23 04:57:16;;;;;;;13.38;6.65;;;17.60;99.90;;;;;;5033696;28;20460;-69
2022/07/23 04:59:41;;;;;;;15.40;7.55;;;17.60;99.90;;;;;;5033607;28;20349;-69
2022/07/23 05:02:07;;;;;;;11.18;6.97;;;17.60;99.90;;;;;;5033906;28;20033;-70
2022/07/23 05:04:33;;;;;;;13.38;6.93;;;17.60;99.90;;;;;;5033847;28;20025;-70
2022/07/23 05:06:59;;;;;;;13.27;7.20;;;17.60;99.90;;;;;;5033408;28;20036;-69
2022/07/23 05:09:24;;;;;;;14.68;7.68;;;17.60;99.90;;;;;;5033438;28;20479;-70
2022/07/23 05:11:50;;;;;;;13.02;7.50;;;17.60;99.90;;;;;;5033159;28;20128;-69
2022/07/23 05:14:16;;;;;;;14.25;8.38;;;17.70;99.90;;;;;;5033383;28;20033;-70
2022/07/23 05:16:42;;;;;;;11.20;7.78;;;17.70;99.90;;;;;;5033654;28;20166;-70
2022/07/23 05:19:08;;;;;;;166.75;83.38;;;17.70;99.90;;;;;;5033114;28;20083;-70
2022/07/23 05:21:33;;;;;;;482.80;281.45;;;17.60;99.90;;;;;;5033136;28;20041;-72
2022/07/23 05:23:59;;;;;;;111.20;61.58;;;17.70;99.90;;;;;;5031893;28;20040;-72
2022/07/23 05:26:25;;;;;;;22.00;11.73;;;17.70;99.90;;;;;;5033067;28;20037;-73
2022/07/23 05:28:51;;;;;;;13.90;8.52;;;17.70;99.90;;;;;;5033320;28;20030;-73
2022/07/23 05:31:17;;;;;;;257.10;132.10;;;17.70;99.90;;;;;;5032023;28;20089;-76
2022/07/23 05:33:43;;;;;;;85.18;48.50;;;17.70;99.90;;;;;;5033002;28;20116;-74
2022/07/23 05:36:09;;;;;;;36.25;19.70;;;17.80;99.90;;;;;;5032877;28;20121;-72
2022/07/23 05:38:35;;;;;;;11.52;8.57;;;17.70;99.90;;;;;;5031982;28;20497;-70
2022/07/23 05:41:01;;;;;;;12.23;7.40;;;17.80;99.90;;;;;;5032649;28;20029;-73
2022/07/23 05:43:27;;;;;;;16.50;7.35;;;17.80;99.90;;;;;;5033133;28;20014;-72
2022/07/23 05:45:53;;;;;;;13.85;7.28;;;17.80;99.90;;;;;;5031556;28;20486;-70
2022/07/23 05:48:19;;;;;;;21.77;7.88;;;17.80;99.90;;;;;;5032486;28;20033;-72
2022/07/23 05:50:46;;;;;;;13.52;7.53;;;17.90;99.90;;;;;;5032693;28;20075;-72
2022/07/23 05:53:12;;;;;;;12.45;7.20;;;18.00;99.90;;;;;;5032475;28;20033;-71
2022/07/23 05:55:38;;;;;;;299.77;185.90;;;18.00;99.90;;;;;;5032789;28;20114;-72
2022/07/23 05:58:03;;;;;;;72.45;37.90;;;18.00;99.90;;;;;;5032667;28;20101;-73
2022/07/23 06:00:30;;;;;;;191.68;106.45;;;18.10;99.90;;;;;;5031471;28;20040;-71
2022/07/23 06:02:56;;;;;;;74.10;47.03;;;18.20;99.90;;;;;;5032550;28;20033;-76
2022/07/23 06:05:22;;;;;;;136.70;97.88;;;18.20;99.90;;;;;;5032082;28;20025;-73
2022/07/23 06:07:48;;;;;;;36.38;23.48;;;18.30;99.90;;;;;;5032515;28;20025;-73
2022/07/23 06:10:14;;;;;;;15.35;9.18;;;18.40;99.90;;;;;;5031155;28;20033;-71
2022/07/23 06:12:40;;;;;;;15.00;8.32;;;18.50;99.90;;;;;;5032197;28;20120;-72
2022/07/23 06:15:07;;;;;;;15.77;7.88;;;18.50;99.90;;;;;;5031050;28;20471;-73
2022/07/23 06:17:32;;;;;;;86.88;48.45;;;18.50;99.90;;;;;;5032169;28;20045;-73
2022/07/23 06:19:58;;;;;;;86.15;49.17;;;18.50;99.90;;;;;;5030869;28;20029;-72
2022/07/23 06:22:24;;;;;;;25.63;15.65;;;18.60;99.90;;;;;;5032464;28;20052;-70
2022/07/23 06:24:51;;;;;;;14.65;7.72;;;18.60;99.90;;;;;;5032085;28;20108;-71
2022/07/23 06:27:18;;;;;;;16.07;8.30;;;18.60;99.90;;;;;;5032026;28;20037;-72
2022/07/23 06:29:43;;;;;;;10.98;6.50;;;18.60;99.90;;;;;;5031952;28;20045;-71
2022/07/23 06:32:09;;;;;;;14.63;6.72;;;18.50;99.90;;;;;;5031842;28;20359;-72
2022/07/23 06:34:35;;;;;;;14.18;6.72;;;18.60;99.90;;;;;;5032556;28;20076;-74
2022/07/23 06:37:01;;;;;;;13.23;6.95;;;18.80;99.90;;;;;;5031852;28;20083;-74
2022/07/23 06:39:27;;;;;;;16.13;7.05;;;18.70;99.90;;;;;;5031750;28;20100;-75
2022/07/23 06:41:52;;;;;;;13.35;6.30;;;18.70;99.90;;;;;;5032085;28;20215;-74
2022/07/23 06:44:18;;;;;;;12.50;7.30;;;18.80;99.90;;;;;;5030533;28;20532;-73
2022/07/23 06:46:44;;;;;;;15.27;6.65;;;18.70;99.70;;;;;;5032059;28;20431;-73
2022/07/23 06:49:10;;;;;;;12.55;6.53;;;18.70;99.50;;;;;;5031371;28;20120;-75
2022/07/23 06:51:35;;;;;;;15.80;6.63;;;18.70;99.30;;;;;;5030591;28;20053;-73
2022/07/23 06:54:02;;;;;;;10.60;6.47;;;18.80;99.50;;;;;;5031615;28;20037;-71
2022/07/23 06:56:27;;;;;;;14.00;7.07;;;18.90;99.30;;;;;;5030157;28;20144;-72
2022/07/23 06:58:53;;;;;;;16.75;7.35;;;18.90;99.10;;;;;;5032331;28;20029;-73
2022/07/23 07:01:34;;;;;;;15.43;7.20;;;18.90;99.20;;;;;;5032230;28;20042;-73
2022/07/23 07:03:59;;;;;;;11.70;7.13;;;19.00;99.20;;;;;;5031298;28;20420;-72
2022/07/23 07:06:25;;;;;;;13.50;7.07;;;19.00;99.30;;;;;;5031287;28;20422;-74
2022/07/23 07:08:51;;;;;;;11.00;6.28;;;19.10;99.30;;;;;;5031122;28;20489;-71
2022/07/23 07:11:23;;;;;;;9.25;4.65;;;19.20;98.60;;;;;;5031360;28;20515;-70
2022/07/23 07:13:50;;;;;;;11.73;4.75;;;19.30;98.50;;;;;;5031839;28;20029;-74
2022/07/23 07:16:34;;;;;;;13.95;4.93;;;19.30;98.00;;;;;;5031204;28;20511;-74
2022/07/23 07:19:00;;;;;;;100.95;52.85;;;19.40;97.40;;;;;;5030893;28;20091;-72
2022/07/23 07:21:28;;;;;;;40.10;21.75;;;19.40;97.40;;;;;;5030853;28;20359;-71
2022/07/23 07:23:54;;;;;;;47.47;26.48;;;19.50;96.90;;;;;;5030854;28;20068;-71
2022/07/23 07:26:30;;;;;;;47.78;27.48;;;19.50;96.70;;;;;;5030925;28;20045;-71
2022/07/23 07:28:56;;;;;;;52.13;27.85;;;19.50;96.50;;;;;;5030858;28;20056;-78
2022/07/23 07:31:22;;;;;;;37.65;17.92;;;19.60;96.20;;;;;;5031376;28;20444;-72
2022/07/23 07:33:48;;;;;;;12.20;4.45;;;19.80;96.10;;;;;;5030105;28;20057;-74
2022/07/23 07:36:42;;;;;;;8.73;3.88;;;19.90;95.70;;;;;;5031136;28;20025;-71
2022/07/23 07:39:10;;;;;;;9.25;3.10;;;20.00;95.50;;;;;;5031494;28;20044;-72
2022/07/23 07:41:36;;;;;;;9.13;3.55;;;19.90;94.80;;;;;;5031020;28;20474;-70
2022/07/23 07:44:01;;;;;;;9.52;3.28;;;19.90;95.10;;;;;;5029960;28;20026;-71
2022/07/23 07:46:27;;;;;;;8.25;4.25;;;19.80;95.00;;;;;;5030309;28;20135;-72
2022/07/23 07:48:53;;;;;;;330.25;194.90;;;19.80;95.20;;;;;;5030968;28;20040;-76
2022/07/23 07:51:19;;;;;;;74.38;41.75;;;19.80;95.60;;;;;;5031160;28;20472;-75
2022/07/23 07:53:45;;;;;;;12.85;6.80;;;19.80;95.60;;;;;;5030935;28;20037;-75
2022/07/23 07:56:25;;;;;;;13.15;6.03;;;19.90;95.40;;;;;;5030706;28;20414;-73
2022/07/23 07:58:51;;;;;;;9.50;3.40;;;19.90;95.20;;;;;;5031198;28;20063;-73
2022/07/23 08:01:29;;;;;;;7.25;2.78;;;19.90;95.20;;;;;;5031335;28;20037;-75
2022/07/23 08:03:55;;;;;;;;;;;19.90;94.70;;;;;;5035622;28;20155;-73
2022/07/23 08:06:27;;;;;;;7.45;2.58;;;19.90;95.00;;;;;;5034665;28;19909;-74
2022/07/23 08:08:52;;;;;;;5.55;2.75;;;19.90;94.70;;;;;;5034786;28;20044;-79
2022/07/23 08:11:25;;;;;;;6.35;2.80;;;19.90;94.80;;;;;;5034565;28;20120;-75
2022/07/23 08:13:50;;;;;;;8.32;3.03;;;20.00;94.40;;;;;;5035245;28;20056;-75
2022/07/23 08:16:34;;;;;;;5.82;2.95;;;20.10;94.60;;;;;;5034880;28;20313;-74
2022/07/23 08:19:00;;;;;;;8.30;2.92;;;20.10;94.50;;;;;;5033453;28;20080;-74
2022/07/23 08:21:26;;;;;;;7.63;2.97;;;20.40;94.60;;;;;;5034376;28;20033;-74
2022/07/23 08:23:51;;;;;;;6.13;2.70;;;20.60;93.90;;;;;;5034499;28;20029;-74
2022/07/23 08:26:27;;;;;;;6.45;2.40;;;20.80;93.80;;;;;;5034704;28;20060;-75
2022/07/23 08:28:52;;;;;;;10.55;2.03;;;21.00;93.50;;;;;;5034897;28;20022;-72
2022/07/23 08:31:27;;;;;;;5.45;1.83;;;21.10;92.40;;;;;;5033170;28;20034;-75
2022/07/23 08:33:54;;;;;;;5.18;2.17;;;20.90;92.20;;;;;;5034150;28;20042;-77
2022/07/23 08:36:32;;;;;;;6.90;2.60;;;20.90;92.40;;;;;;5034089;28;20029;-78
2022/07/23 08:38:59;;;;;;;13.07;3.45;;;21.40;92.50;;;;;;5033475;28;20028;-78
2022/07/23 08:41:25;;;;;;;4.97;2.03;;;22.00;91.70;;;;;;5032892;28;20096;-72
2022/07/23 08:43:52;;;;;;;5.65;2.38;;;22.30;91.20;;;;;;5034225;28;20031;-72
2022/07/23 08:46:19;;;;;;;17.13;8.70;;;23.40;90.80;;;;;;5034091;28;20131;-76
2022/07/23 08:48:48;;;;;;;559.47;339.73;;;23.90;88.50;;;;;;5033595;28;20044;-76
2022/07/23 08:51:36;;;;;;;13.20;9.15;;;24.70;83.50;;;;;;5032704;28;20041;-73
2022/07/23 08:54:02;;;;;;;4.90;2.40;;;25.40;80.70;;;;;;5033657;28;20163;-74
2022/07/23 08:56:28;;;;;;;4.80;1.70;;;25.70;80.50;;;;;;5033683;28;20049;-75
2022/07/23 08:58:54;;;;;;;7.82;2.55;;;24.80;78.60;;;;;;5034763;28;20029;-75
2022/07/23 09:01:20;;;;;;;5.72;2.47;;;24.80;81.90;;;;;;5034400;28;20044;-76
2022/07/23 09:03:46;;;;;;;3.92;1.60;;;24.60;80.60;;;;;;5034019;28;20033;-76
2022/07/23 09:06:21;;;;;;;4.25;1.50;;;23.90;79.80;;;;;;5033662;28;20030;-77
2022/07/23 09:08:47;;;;;;;8.23;1.90;;;23.80;79.30;;;;;;5034133;28;20036;-84
2022/07/23 09:11:22;;;;;;;5.03;1.60;;;23.70;79.90;;;;;;5034080;28;20051;-75
2022/07/23 09:13:53;;;;;;;3.65;1.52;;;23.70;80.30;;;;;;5033264;28;20045;-74
2022/07/23 09:16:40;;;;;;;4.25;1.83;;;24.40;77.70;;;;;;5033965;28;20067;-74
2022/07/23 09:19:07;;;;;;;5.13;1.98;;;24.10;78.00;;;;;;5033236;28;20052;-73
2022/07/23 09:21:56;;;;;;;3.37;1.47;;;23.90;79.50;;;;;;5032405;28;20518;-77
2022/07/23 09:24:21;;;;;;;34.70;18.95;;;24.70;78.30;;;;;;5032319;28;20403;-74
2022/07/23 09:26:49;;;;;;;81.82;45.47;;;24.60;77.20;;;;;;5033177;28;20037;-76
2022/07/23 09:29:21;;;;;;;5.43;2.13;;;24.80;76.90;;;;;;5033325;28;20448;-75
2022/07/23 09:31:59;;;;;;;3.92;1.95;;;24.30;76.90;;;;;;5033506;28;20033;-72
2022/07/23 09:34:30;;;;;;;2.28;1.40;;;24.30;78.20;;;;;;5033111;28;20347;-75
2022/07/23 09:37:09;;;;;;;3.72;1.65;;;24.70;77.50;;;;;;5033098;28;20030;-74
2022/07/23 09:39:35;;;;;;;4.10;1.40;;;24.40;75.70;;;;;;5032903;28;20532;-72
2022/07/23 09:42:25;;;;;;;10.38;2.13;;;24.40;76.50;;;;;;5032898;28;20029;-74
2022/07/23 09:44:56;;;;;;;3.20;1.60;;;24.00;77.30;;;;;;5031366;28;20112;-74
2022/07/23 09:47:24;;;;;;;5.22;1.63;;;23.60;78.50;;;;;;5032618;28;20036;-73
2022/07/23 09:50:12;;;;;;;5.78;3.28;;;23.10;79.00;;;;;;5033340;28;20103;-72
2022/07/23 09:52:49;;;;;;;4.15;1.60;;;23.20;79.70;;;;;;5032736;28;20041;-73
2022/07/23 09:55:17;;;;;;;6.93;1.70;;;23.00;79.10;;;;;;5032288;28;20072;-73
2022/07/23 09:57:50;;;;;;;6.63;2.85;;;23.10;77.60;;;;;;5032797;28;20435;-73
2022/07/23 10:00:16;;;;;;;3.45;2.17;;;23.30;77.50;;;;;;5031328;28;20124;-74
2022/07/23 10:02:45;;;;;;;3.15;1.67;;;23.20;78.10;;;;;;5031362;28;20172;-74
2022/07/23 10:05:10;;;;;;;5.57;1.40;;;23.80;77.50;;;;;;5032199;28;20497;-73
2022/07/23 10:07:41;;;;;;;3.75;1.40;;;23.80;76.80;;;;;;5032697;28;20026;-73
2022/07/23 10:10:07;;;;;;;3.30;1.38;;;23.60;77.00;;;;;;5032355;28;20560;-73
2022/07/23 10:13:01;;;;;;;5.30;1.70;;;24.10;76.40;;;;;;5032753;28;20075;-74
2022/07/23 10:15:27;;;;;;;5.22;1.40;;;24.20;75.00;;;;;;5032627;28;20045;-73
2022/07/23 10:17:53;;;;;;;4.60;1.40;;;23.90;74.10;;;;;;5032287;28;20444;-73
2022/07/23 10:20:19;;;;;;;3.60;1.48;;;23.90;76.00;;;;;;5030980;28;20056;-74
2022/07/23 10:23:04;;;;;;;5.47;1.65;;;23.70;76.30;;;;;;5031499;28;20026;-72
2022/07/23 10:25:55;;;;;;;7.63;1.35;;;23.80;76.40;;;;;;5032159;28;20034;-74
2022/07/23 10:28:23;;;;;;;2.88;1.67;;;23.60;76.00;;;;;;5032712;28;20064;-74
2022/07/23 10:31:00;;;;;;;3.05;1.20;;;23.40;75.70;;;;;;5032221;28;20093;-73
2022/07/23 10:33:56;;;;;;;8.20;3.45;;;23.30;76.10;;;;;;5032102;28;20041;-73
2022/07/23 10:37:24;;;;;;;6.73;3.53;;;23.40;75.90;;;;;;5030815;28;20042;-73
2022/07/23 10:40:10;;;;;;;7.43;1.88;;;23.50;76.80;;;;;;5009552;28;20034;-73
2022/07/23 10:42:36;;;;;;;3.88;1.60;;;23.40;75.70;;;;;;5007164;28;20169;-74
2022/07/23 10:45:29;;;;;;;3.20;1.45;;;23.40;74.50;;;;;;5031452;28;20103;-74
2022/07/23 10:47:56;;;;;;;1.50;1.30;;;23.60;73.80;;;;;;5031759;28;20448;-73
2022/07/23 10:50:32;;;;;;;5.43;1.45;;;23.40;74.80;;;;;;5030603;28;20435;-73
2022/07/23 10:53:17;;;;;;;3.60;1.50;;;23.50;75.30;;;;;;5031889;28;20037;-73
2022/07/23 10:55:52;;;;;;;3.78;1.48;;;23.50;74.00;;;;;;5032359;28;20049;-74
2022/07/23 10:58:23;;;;;;;3.65;1.20;;;23.50;75.20;;;;;;5032065;28;20495;-74
2022/07/23 11:00:50;;;;;;;3.58;1.48;;;23.70;75.20;;;;;;5030672;28;20049;-74
2022/07/23 11:03:37;;;;;;;2.15;1.02;;;23.60;75.30;;;;;;5031886;28;20041;-73
2022/07/23 11:06:04;;;;;;;3.53;1.10;;;23.80;74.20;;;;;;5031774;28;20307;-73
2022/07/23 11:08:30;;;;;;;4.72;1.25;;;23.70;74.40;;;;;;5031406;28;20124;-72
2022/07/23 11:11:01;;;;;;;3.50;1.23;;;24.10;74.40;;;;;;5030671;28;20562;-73
2022/07/23 11:13:39;;;;;;;3.95;1.88;;;23.80;72.60;;;;;;5032392;28;20018;-73
2022/07/23 11:16:27;;;;;;;5.75;1.77;;;23.70;73.50;;;;;;5031155;28;20053;-73
2022/07/23 11:18:55;;;;;;;5.55;1.50;;;23.80;72.90;;;;;;5031340;28;20033;-73
2022/07/23 11:21:36;;;;;;;4.07;1.40;;;23.60;72.80;;;;;;5031550;28;20117;-74
2022/07/23 11:24:06;;;;;;;3.63;1.58;;;23.60;73.30;;;;;;5031425;28;20033;-72
2022/07/23 11:26:41;;;;;;;2.50;1.10;;;23.50;72.70;;;;;;5031215;28;20026;-73
2022/07/23 11:29:28;;;;;;;5.30;1.83;;;23.50;72.90;;;;;;5031523;28;20091;-74
2022/07/23 11:31:53;;;;;;;4.40;1.38;;;23.60;73.20;;;;;;5032509;28;20033;-74
2022/07/23 11:34:43;;;;;;;2.65;1.02;;;23.80;71.80;;;;;;5032189;28;20029;-74
2022/07/23 11:37:11;;;;;;;4.72;1.33;;;23.80;72.30;;;;;;5028644;28;20037;-73
2022/07/23 11:39:38;;;;;;;2.10;1.35;;;23.80;71.80;;;;;;5030976;28;20033;-71
2022/07/23 11:42:06;;;;;;;1.73;0.90;;;23.80;72.20;;;;;;5031086;28;20045;-73
2022/07/23 11:44:33;;;;;;;;;;;23.80;71.90;;;;;;5031496;28;20108;-72
2022/07/23 11:47:03;;;;;;;9.77;1.07;;;23.90;72.40;;;;;;5030971;28;19968;-72
2022/07/23 11:49:29;;;;;;;2.25;1.02;;;23.90;72.10;;;;;;5031618;28;20382;-73
2022/07/23 11:52:12;;;;;;;2.67;0.75;;;24.10;71.70;;;;;;5030960;28;20033;-72
2022/07/23 11:54:50;;;;;;;6.25;2.10;;;24.00;71.40;;;;;;5030648;28;20030;-73
2022/07/23 11:57:16;;;;;;;5.47;1.20;;;24.20;71.10;;;;;;5030999;28;20099;-71
2022/07/23 11:59:43;;;;;;;3.38;0.90;;;24.20;70.10;;;;;;5030835;28;20034;-73
2022/07/23 12:02:09;;;;;;;8.35;0.90;;;24.10;69.60;;;;;;5029580;28;20029;-73
2022/07/23 12:04:50;;;;;;;2.88;0.82;;;24.20;70.40;;;;;;5030230;28;20051;-73
2022/07/23 12:07:26;;;;;;;3.10;1.00;;;24.10;70.00;;;;;;5031107;28;20061;-73
2022/07/23 12:09:52;;;;;;;2.58;1.13;;;24.10;70.10;;;;;;5031040;28;20033;-73
2022/07/23 12:12:18;;;;;;;3.63;0.88;;;24.20;70.90;;;;;;5029781;28;20467;-74
2022/07/23 12:14:55;;;;;;;4.68;1.02;;;23.90;69.70;;;;;;5030669;28;20125;-73
2022/07/23 12:17:27;;;;;;;1.00;0.85;;;24.00;71.10;;;;;;5030571;28;20029;-73
2022/07/23 12:19:54;;;;;;;4.05;1.00;;;23.90;70.90;;;;;;5031318;28;20087;-72
2022/07/23 12:22:22;;;;;;;3.53;1.07;;;24.00;70.80;;;;;;5030931;28;20383;-73
2022/07/23 12:24:55;;;;;;;;;;;24.20;70.80;;;;;;5031378;28;20049;-73
2022/07/23 12:27:21;;;;;;;2.72;0.88;;;23.80;69.90;;;;;;5030916;28;20338;-72
2022/07/23 12:29:47;;;;;;;1.52;0.80;;;23.60;71.80;;;;;;5030391;28;20129;-73
2022/07/23 12:32:24;;;;;;;2.72;1.20;;;23.80;72.00;;;;;;5029687;28;20116;-72
2022/07/23 12:35:07;;;;;;;3.88;1.00;;;23.80;71.00;;;;;;5031515;28;20100;-74
2022/07/23 12:37:39;;;;;;;3.22;1.90;;;23.90;71.50;;;;;;5026403;28;20045;-74
2022/07/23 12:40:26;;;;;;;3.20;1.10;;;24.20;70.90;;;;;;5028679;28;20150;-73
2022/07/23 12:43:26;;;;;;;2.38;1.20;;;24.20;70.20;;;;;;5030608;28;20041;-73
2022/07/23 12:46:01;;;;;;;3.63;1.05;;;23.90;69.60;;;;;;5028669;28;20084;-73
2022/07/23 12:48:36;;;;;;;3.13;1.10;;;23.90;70.60;;;;;;5033731;28;20037;-72
2022/07/23 12:51:28;;;;;;;3.58;1.08;;;24.00;70.30;;;;;;5034118;28;20030;-73